Flugplatz Tannheim

Für EDMT sind keine METAR/TAF Berichte vorhanden.
Es werden die Flugwettermeldungen vom Flugplatz Memmingen Allgau in 10 km Entfernung angezeigt.

Bericht für EDJA

vom 07.03. um 01:50 UTC

Wind 4 kt aus 40°

Sichtweite 10 km oder mehr

keine Wolken

Temperatur -4.0°C

Taupunkt -6.0°C

Luftfeuchtigkeit 86%

Luftdruck 1024 hPa

EDJA 070150Z AUTO 04004KT 9999 // NCD M04/M06 Q1024

Prognose für EDJA

vom 06.03. um 17:00 UTC

Am 06.03. zwischen 18:00 UTC und 20:00 UTC

Wind 10 kt aus 50°

Sichtweite 10 km oder mehr

keine signifikanten Wettererscheinungen

keine Wolken


Am 06.03. zwischen 20:00 und 22:00 UTC übergehend zu

Wind 4 kt aus 70°

Sichtweite 10 km oder mehr

keine signifikanten Wettererscheinungen

keine Wolken

TAF EDJA 061700Z 0618/0703 05010KT CAVOK BECMG 0620/0622 07004KT
Impressum